createdAt,value
2018-01-11T00:01:54.560Z,40.53
2018-01-11T00:04:20.331Z,43.70
2018-01-11T00:06:46.088Z,40.83
2018-01-11T00:09:11.844Z,43.60
2018-01-11T00:11:37.603Z,42.37
2018-01-11T00:14:03.411Z,42.07
2018-01-11T00:16:29.186Z,41.30
2018-01-11T00:18:55.167Z,38.60
2018-01-11T00:21:21.031Z,43.67
2018-01-11T00:23:46.947Z,44.90
2018-01-11T00:26:12.775Z,37.50
2018-01-11T00:28:38.521Z,41.70
2018-01-11T00:31:04.266Z,40.53
2018-01-11T00:33:30.064Z,40.77
2018-01-11T00:35:55.802Z,38.50
2018-01-11T00:38:21.553Z,38.53
2018-01-11T00:40:47.294Z,36.97
2018-01-11T00:43:13.047Z,40.40
2018-01-11T00:45:38.818Z,39.77
2018-01-11T00:48:04.572Z,36.23
2018-01-11T00:50:30.317Z,35.13
2018-01-11T00:52:56.114Z,35.40
2018-01-11T00:55:21.890Z,37.80
2018-01-11T00:57:48.013Z,36.80
2018-01-11T01:00:13.755Z,36.17
2018-01-11T01:02:39.513Z,36.53
2018-01-11T01:05:05.263Z,35.23
2018-01-11T01:07:31.023Z,34.73
2018-01-11T01:09:56.792Z,37.83
2018-01-11T01:12:22.543Z,35.77
2018-01-11T01:14:48.286Z,37.40
2018-01-11T01:17:14.035Z,38.27
2018-01-11T01:19:39.791Z,38.70
2018-01-11T01:22:05.559Z,37.00
2018-01-11T01:24:31.314Z,36.00
2018-01-11T01:26:57.062Z,37.30
2018-01-11T01:29:23.140Z,34.27
2018-01-11T01:31:48.898Z,34.97
2018-01-11T01:34:14.719Z,37.93
2018-01-11T01:36:40.470Z,35.57
2018-01-11T01:39:06.249Z,37.67
2018-01-11T01:41:31.992Z,34.20
2018-01-11T01:43:57.742Z,36.77
2018-01-11T01:46:23.487Z,36.33
2018-01-11T01:48:49.226Z,36.00
2018-01-11T01:51:14.975Z,33.87
2018-01-11T01:53:41.666Z,36.30
2018-01-11T01:56:07.406Z,33.97
2018-01-11T01:58:33.162Z,39.00
2018-01-11T02:00:58.911Z,36.60
2018-01-11T02:03:24.663Z,37.23
2018-01-11T02:05:50.398Z,34.80
2018-01-11T02:08:16.143Z,37.83
2018-01-11T02:10:41.886Z,33.03
2018-01-11T02:13:07.632Z,35.80
2018-01-11T02:15:33.375Z,35.30
2018-01-11T02:17:59.107Z,34.73
2018-01-11T02:20:24.843Z,36.40
2018-01-11T02:22:50.594Z,34.53
2018-01-11T02:25:16.343Z,34.13
2018-01-11T02:27:42.071Z,35.77
2018-01-11T02:30:07.819Z,35.57
2018-01-11T02:32:33.555Z,33.03
2018-01-11T02:34:59.307Z,36.60
2018-01-11T02:37:25.047Z,31.60
2018-01-11T02:39:50.806Z,35.73
2018-01-11T02:42:16.552Z,39.43
2018-01-11T02:44:42.314Z,33.40
2018-01-11T02:47:08.058Z,30.93
2018-01-11T02:49:33.807Z,32.97
2018-01-11T02:51:59.554Z,32.77
2018-01-11T02:54:25.289Z,33.80
2018-01-11T02:56:51.046Z,32.10
2018-01-11T02:59:16.798Z,33.23
2018-01-11T03:01:42.547Z,32.63
2018-01-11T03:04:08.270Z,35.43
2018-01-11T03:06:34.014Z,36.43
2018-01-11T03:08:59.746Z,36.27
2018-01-11T03:11:25.486Z,36.73
2018-01-11T03:13:51.222Z,31.53
2018-01-11T03:16:16.971Z,35.57
2018-01-11T03:18:42.713Z,35.37
2018-01-11T03:21:08.470Z,33.83
2018-01-11T03:23:34.214Z,33.27
2018-01-11T03:25:59.963Z,32.10
2018-01-11T03:28:25.698Z,32.23
2018-01-11T03:30:51.460Z,34.00
2018-01-11T03:33:17.190Z,32.97
2018-01-11T03:35:42.919Z,30.90
2018-01-11T03:38:08.653Z,29.73
2018-01-11T03:40:34.386Z,35.97
2018-01-11T03:43:00.130Z,31.07
2018-01-11T03:45:25.891Z,28.30
2018-01-11T03:47:51.646Z,32.00
2018-01-11T03:50:17.402Z,31.60
2018-01-11T03:52:43.163Z,36.17
2018-01-11T03:55:08.912Z,34.07
2018-01-11T03:57:34.657Z,35.97
2018-01-11T04:00:00.383Z,34.47
2018-01-11T04:02:26.126Z,33.57
2018-01-11T04:04:51.858Z,31.47
2018-01-11T04:07:17.609Z,32.47
2018-01-11T04:09:44.136Z,29.75
2018-01-11T04:12:09.878Z,27.97
2018-01-11T04:14:35.635Z,34.00
2018-01-11T04:17:01.382Z,31.30
2018-01-11T04:19:27.122Z,30.67
2018-01-11T04:21:52.870Z,28.43
2018-01-11T04:24:18.643Z,31.83
2018-01-11T04:26:44.388Z,31.43
2018-01-11T04:29:10.142Z,32.60
2018-01-11T04:31:35.895Z,32.10
2018-01-11T04:34:01.664Z,31.50
2018-01-11T04:36:27.418Z,29.40
2018-01-11T04:38:53.174Z,30.63
2018-01-11T04:41:18.930Z,28.10
2018-01-11T04:43:44.689Z,28.63
2018-01-11T04:46:10.442Z,30.97
2018-01-11T04:48:36.194Z,31.90
2018-01-11T04:51:01.941Z,31.53
2018-01-11T04:53:27.679Z,34.73
2018-01-11T04:55:53.421Z,31.70
2018-01-11T04:58:19.158Z,33.80
2018-01-11T05:00:50.803Z,31.87
2018-01-11T05:03:16.545Z,32.80
2018-01-11T05:05:42.293Z,31.27
2018-01-11T05:08:08.023Z,32.60
2018-01-11T05:10:33.768Z,31.43
2018-01-11T05:12:59.504Z,34.37
2018-01-11T05:15:25.242Z,31.37
2018-01-11T05:17:50.988Z,31.63
2018-01-11T05:20:16.747Z,35.37
2018-01-11T05:22:42.486Z,30.87
2018-01-11T05:25:08.239Z,32.67
2018-01-11T05:27:33.982Z,31.97
2018-01-11T05:29:59.730Z,33.63
2018-01-11T05:32:25.532Z,30.27
2018-01-11T05:34:51.326Z,34.40
2018-01-11T05:37:17.076Z,35.80
2018-01-11T05:39:42.819Z,30.87
2018-01-11T05:42:08.559Z,30.80
2018-01-11T05:44:34.303Z,32.37
2018-01-11T05:47:00.068Z,31.80
2018-01-11T05:49:25.875Z,40.47
2018-01-11T05:51:51.599Z,30.57
2018-01-11T05:54:17.354Z,30.87
2018-01-11T05:56:43.114Z,26.63
2018-01-11T05:59:08.868Z,28.93
2018-01-11T06:01:34.642Z,31.03
2018-01-11T06:04:00.387Z,28.77
2018-01-11T06:06:26.160Z,27.17
2018-01-11T06:08:51.900Z,25.13
2018-01-11T06:11:17.685Z,24.30
2018-01-11T06:13:43.412Z,25.63
2018-01-11T06:16:09.162Z,22.60
2018-01-11T06:18:34.908Z,23.77
2018-01-11T06:21:00.638Z,24.77
2018-01-11T06:23:26.407Z,25.63
2018-01-11T06:25:52.147Z,22.17
2018-01-11T06:28:17.892Z,27.90
2018-01-11T06:30:43.630Z,33.50
2018-01-11T06:33:09.381Z,29.00
2018-01-11T06:35:35.131Z,29.80
2018-01-11T06:38:00.889Z,27.37
2018-01-11T06:40:26.642Z,23.27
2018-01-11T06:42:52.390Z,21.67
2018-01-11T06:45:18.126Z,23.07
2018-01-11T06:47:43.871Z,24.27
2018-01-11T06:50:09.608Z,22.77
2018-01-11T06:52:35.366Z,20.33
2018-01-11T06:55:01.108Z,21.67
2018-01-11T06:57:26.847Z,20.13
2018-01-11T06:59:52.591Z,20.27
2018-01-11T07:02:18.326Z,19.57
2018-01-11T07:04:44.099Z,18.73
2018-01-11T07:07:09.842Z,18.43
2018-01-11T07:09:35.611Z,18.70
2018-01-11T07:12:01.359Z,20.50
2018-01-11T07:14:27.102Z,21.33
2018-01-11T07:16:52.838Z,21.10
2018-01-11T07:19:18.592Z,21.17
2018-01-11T07:21:44.330Z,20.50
2018-01-11T07:24:10.074Z,20.70
2018-01-11T07:26:35.819Z,20.10
2018-01-11T07:29:01.575Z,21.30
2018-01-11T07:31:27.306Z,19.83
2018-01-11T07:33:53.039Z,22.10
2018-01-11T07:36:18.790Z,21.43
2018-01-11T07:38:44.522Z,23.10
2018-01-11T07:41:10.270Z,25.40
2018-01-11T07:43:35.999Z,25.07
2018-01-11T07:46:01.786Z,25.13
2018-01-11T07:48:27.527Z,25.23
2018-01-11T07:50:53.283Z,26.97
2018-01-11T07:53:19.032Z,23.23
2018-01-11T07:55:44.785Z,22.67
2018-01-11T07:58:10.530Z,24.00
2018-01-11T08:00:36.279Z,22.23
2018-01-11T08:03:02.031Z,21.83
2018-01-11T08:05:27.795Z,21.13
2018-01-11T08:07:53.539Z,21.00
2018-01-11T08:10:19.291Z,24.93
2018-01-11T08:12:45.071Z,25.73
2018-01-11T08:15:10.823Z,26.50
2018-01-11T08:17:36.586Z,25.33
2018-01-11T08:20:02.352Z,27.03
2018-01-11T08:22:28.122Z,35.40
2018-01-11T08:24:53.867Z,40.20
2018-01-11T08:27:19.618Z,34.43
2018-01-11T08:29:45.383Z,24.73
2018-01-11T08:32:11.147Z,21.43
2018-01-11T08:34:36.899Z,21.13
2018-01-11T08:37:02.660Z,20.70
2018-01-11T08:39:28.422Z,21.83
2018-01-11T08:41:54.186Z,22.70
2018-01-11T08:44:19.931Z,22.23
2018-01-11T08:46:45.691Z,23.27
2018-01-11T08:49:11.438Z,23.53
2018-01-11T08:51:37.211Z,28.00
2018-01-11T08:54:02.975Z,26.20
2018-01-11T08:56:28.734Z,25.70
2018-01-11T08:58:54.488Z,25.80
2018-01-11T09:01:20.235Z,23.97
2018-01-11T09:03:45.995Z,24.13
2018-01-11T09:06:11.746Z,23.17
2018-01-11T09:08:37.518Z,22.00
2018-01-11T09:11:03.274Z,23.73
2018-01-11T09:13:29.031Z,23.40
2018-01-11T09:15:54.787Z,24.53
2018-01-11T09:18:20.557Z,25.43
2018-01-11T09:20:46.303Z,25.57
2018-01-11T09:23:12.055Z,21.70
2018-01-11T09:25:37.803Z,21.97
2018-01-11T09:28:03.566Z,22.33
2018-01-11T09:30:29.314Z,27.50
2018-01-11T09:32:55.071Z,30.43
2018-01-11T09:35:20.823Z,33.80
2018-01-11T09:37:46.586Z,38.57
2018-01-11T09:40:12.339Z,37.90
2018-01-11T09:42:38.106Z,37.50
2018-01-11T09:45:03.855Z,36.63
2018-01-11T09:47:29.594Z,35.90
2018-01-11T09:49:55.352Z,33.73
2018-01-11T09:52:21.091Z,31.70
2018-01-11T09:54:46.865Z,32.20
2018-01-11T09:57:12.607Z,27.70
2018-01-11T09:59:38.351Z,26.57
2018-01-11T10:02:04.095Z,26.50
2018-01-11T10:04:29.840Z,26.63
2018-01-11T10:06:55.586Z,25.90
2018-01-11T10:09:21.332Z,28.70
2018-01-11T10:11:47.059Z,26.37
2018-01-11T10:14:12.831Z,24.40
2018-01-11T10:16:38.583Z,25.33
2018-01-11T10:19:04.327Z,25.47
2018-01-11T10:21:30.098Z,28.67
2018-01-11T10:23:55.858Z,29.23
2018-01-11T10:26:21.615Z,27.03
2018-01-11T10:28:47.392Z,27.80
2018-01-11T10:31:13.143Z,25.60
2018-01-11T10:33:38.878Z,26.23
2018-01-11T10:36:04.644Z,26.47
2018-01-11T10:38:30.404Z,24.73
2018-01-11T10:40:56.166Z,25.10
2018-01-11T10:43:21.915Z,30.13
2018-01-11T10:45:47.673Z,28.33
2018-01-11T10:48:13.411Z,29.33
2018-01-11T10:50:39.163Z,36.77
2018-01-11T10:53:04.910Z,47.33
2018-01-11T10:55:30.663Z,49.93
2018-01-11T10:57:56.407Z,50.60
2018-01-11T11:00:22.162Z,66.33
2018-01-11T11:02:48.786Z,66.07
2018-01-11T11:05:14.527Z,91.35
2018-01-11T11:07:40.262Z,87.07
2018-01-11T11:10:06.006Z,115.40
2018-01-11T11:12:31.747Z,110.93
2018-01-11T11:14:57.483Z,109.93
2018-01-11T11:17:23.267Z,152.77
2018-01-11T11:19:49.004Z,113.40
2018-01-11T11:22:14.763Z,113.43
2018-01-11T11:24:40.510Z,123.20
2018-01-11T11:27:06.247Z,124.77
2018-01-11T11:29:31.994Z,129.83
2018-01-11T11:31:57.754Z,128.37
2018-01-11T11:34:23.717Z,134.57
2018-01-11T11:36:49.490Z,128.43
2018-01-11T11:39:15.230Z,124.83
2018-01-11T11:41:40.994Z,115.63
2018-01-11T11:44:06.751Z,116.47
2018-01-11T11:46:32.532Z,130.07
2018-01-11T11:48:58.266Z,106.80
2018-01-11T11:51:24.011Z,118.83
2018-01-11T11:53:49.759Z,123.77
2018-01-11T11:56:15.500Z,128.43
2018-01-11T11:58:41.255Z,125.40
2018-01-11T12:01:07.007Z,137.97
2018-01-11T12:03:32.765Z,125.43
2018-01-11T12:05:58.522Z,121.17
2018-01-11T12:08:24.285Z,153.03
2018-01-11T12:10:50.095Z,172.20
2018-01-11T12:13:15.882Z,172.47
2018-01-11T12:15:41.634Z,176.17
2018-01-11T12:18:07.415Z,246.73
2018-01-11T12:20:33.154Z,256.90
2018-01-11T12:22:58.911Z,329.27
2018-01-11T12:25:24.655Z,302.17
2018-01-11T12:27:50.399Z,320.70
2018-01-11T12:30:16.131Z,307.37
2018-01-11T12:32:41.887Z,257.97
2018-01-11T12:35:07.631Z,307.23
2018-01-11T12:37:33.388Z,334.20
2018-01-11T12:39:59.304Z,446.23
2018-01-11T12:42:25.054Z,315.20
2018-01-11T12:44:50.857Z,296.60
2018-01-11T12:47:16.566Z,246.57
2018-01-11T12:49:42.310Z,278.83
2018-01-11T12:52:08.043Z,224.07
2018-01-11T12:54:33.815Z,285.13
2018-01-11T12:56:59.562Z,289.27
2018-01-11T12:59:25.298Z,304.60
2018-01-11T13:01:51.111Z,287.63
2018-01-11T13:04:16.867Z,205.67
2018-01-11T13:06:42.616Z,233.17
2018-01-11T13:09:08.406Z,243.23
2018-01-11T13:11:34.146Z,307.37
2018-01-11T13:13:59.910Z,358.60
2018-01-11T13:16:25.655Z,377.90
2018-01-11T13:18:51.394Z,470.87
2018-01-11T13:21:17.148Z,414.37
2018-01-11T13:23:42.892Z,396.73
2018-01-11T13:26:08.645Z,435.63
2018-01-11T13:28:34.403Z,357.90
2018-01-11T13:31:00.163Z,361.50
2018-01-11T13:33:25.935Z,344.43
2018-01-11T13:35:51.685Z,307.17
2018-01-11T13:38:17.425Z,333.33
2018-01-11T13:40:43.176Z,311.30
2018-01-11T13:43:08.902Z,310.63
2018-01-11T13:45:34.668Z,301.67
2018-01-11T13:48:00.423Z,267.80
2018-01-11T13:50:26.175Z,259.00
2018-01-11T13:52:51.911Z,231.07
2018-01-11T13:55:17.670Z,208.53
2018-01-11T13:57:43.418Z,215.60
2018-01-11T14:00:09.183Z,197.00
2018-01-11T14:02:34.931Z,220.77
2018-01-11T14:05:00.723Z,204.50
2018-01-11T14:07:26.467Z,228.30
2018-01-11T14:09:52.214Z,200.17
2018-01-11T14:12:17.967Z,197.73
2018-01-11T14:14:43.715Z,170.43
2018-01-11T14:17:09.466Z,182.73
2018-01-11T14:19:35.211Z,158.20
2018-01-11T14:22:00.958Z,174.90
2018-01-11T14:24:26.703Z,171.73
2018-01-11T14:26:52.470Z,177.13
2018-01-11T14:29:18.220Z,162.83
2018-01-11T14:31:43.970Z,180.93
2018-01-11T14:34:09.722Z,163.00
2018-01-11T14:36:35.471Z,174.57
2018-01-11T14:39:01.218Z,168.93
2018-01-11T14:41:26.983Z,167.67
2018-01-11T14:43:52.739Z,161.80
2018-01-11T14:46:18.618Z,135.30
2018-01-11T14:48:44.394Z,164.90
2018-01-11T14:51:10.159Z,144.40
2018-01-11T14:53:35.907Z,128.60
2018-01-11T14:56:01.659Z,98.00
2018-01-11T14:58:27.421Z,89.13
2018-01-11T15:00:53.184Z,105.07
2018-01-11T15:03:18.935Z,83.97
2018-01-11T15:05:44.669Z,82.93
2018-01-11T15:08:10.423Z,76.30
2018-01-11T15:10:36.171Z,74.17
2018-01-11T15:13:01.922Z,65.13
2018-01-11T15:15:27.825Z,70.70
2018-01-11T15:17:53.566Z,62.40
2018-01-11T15:20:19.307Z,60.80
2018-01-11T15:22:45.059Z,61.33
2018-01-11T15:25:10.802Z,53.83
2018-01-11T15:27:36.548Z,61.87
2018-01-11T15:30:02.287Z,63.20
2018-01-11T15:32:28.054Z,64.23
2018-01-11T15:34:53.913Z,44.23
2018-01-11T15:37:19.875Z,40.03
2018-01-11T15:39:45.740Z,37.30
2018-01-11T15:42:11.467Z,32.30
2018-01-11T15:44:37.231Z,33.10
2018-01-11T15:47:02.987Z,29.37
2018-01-11T15:49:28.731Z,28.93
2018-01-11T15:51:54.471Z,26.00
2018-01-11T15:54:20.230Z,34.57
2018-01-11T15:56:45.966Z,24.37
2018-01-11T15:59:11.719Z,27.57
2018-01-11T16:01:37.454Z,24.07
2018-01-11T16:04:03.206Z,22.70
2018-01-11T16:06:28.942Z,25.07
2018-01-11T16:08:54.697Z,23.03
2018-01-11T16:11:20.493Z,20.97
2018-01-11T16:13:46.229Z,19.77
2018-01-11T16:16:12.072Z,22.50
2018-01-11T16:18:37.802Z,26.03
2018-01-11T16:21:03.555Z,18.50
2018-01-11T16:23:29.346Z,21.27
2018-01-11T16:25:55.094Z,24.37
2018-01-11T16:28:20.827Z,25.13
2018-01-11T16:30:46.579Z,18.67
2018-01-11T16:33:12.334Z,24.43
2018-01-11T16:35:38.115Z,24.17
2018-01-11T16:38:03.867Z,22.60
2018-01-11T16:40:29.652Z,22.70
2018-01-11T16:42:55.395Z,24.03
2018-01-11T16:45:21.300Z,30.33
2018-01-11T16:47:47.208Z,49.10
2018-01-11T16:50:12.946Z,78.50
2018-01-11T16:52:38.702Z,35.37
2018-01-11T16:55:04.494Z,27.03
2018-01-11T16:57:30.257Z,23.63
2018-01-11T16:59:56.015Z,36.40
2018-01-11T17:02:21.817Z,23.90
2018-01-11T17:04:47.550Z,22.67
2018-01-11T17:07:13.302Z,20.90
2018-01-11T17:09:39.051Z,21.97
2018-01-11T17:12:04.808Z,24.83
2018-01-11T17:14:30.563Z,24.67
2018-01-11T17:16:56.322Z,20.93
2018-01-11T17:19:22.071Z,21.77
2018-01-11T17:21:47.834Z,22.50
2018-01-11T17:24:13.595Z,23.50
2018-01-11T17:26:39.364Z,20.10
2018-01-11T17:29:05.112Z,23.27
2018-01-11T17:31:30.945Z,22.03
2018-01-11T17:33:56.718Z,24.20
2018-01-11T17:36:22.464Z,23.40
2018-01-11T17:38:48.218Z,20.87
2018-01-11T17:41:13.979Z,23.00
2018-01-11T17:43:39.754Z,23.17
2018-01-11T17:46:05.522Z,27.10
2018-01-11T17:48:31.321Z,27.33
2018-01-11T17:50:57.058Z,27.23
2018-01-11T17:53:22.814Z,27.60
2018-01-11T17:55:48.571Z,28.17
2018-01-11T17:58:14.335Z,27.07
2018-01-11T18:00:40.127Z,29.10
2018-01-11T18:03:05.875Z,29.80
2018-01-11T18:05:31.627Z,30.50
2018-01-11T18:07:57.421Z,31.03
2018-01-11T18:10:23.158Z,29.90
2018-01-11T18:12:48.946Z,33.33
2018-01-11T18:15:14.678Z,30.53
2018-01-11T18:17:40.423Z,28.73
2018-01-11T18:20:06.155Z,27.57
2018-01-11T18:22:31.911Z,28.83
2018-01-11T18:24:57.655Z,36.80
2018-01-11T18:27:23.391Z,29.23
2018-01-11T18:29:49.184Z,32.27
2018-01-11T18:32:14.919Z,35.53
2018-01-11T18:34:40.730Z,43.27
2018-01-11T18:37:06.477Z,36.27
2018-01-11T18:39:32.242Z,35.03
2018-01-11T18:41:57.976Z,41.53
2018-01-11T18:44:23.730Z,35.07
2018-01-11T18:46:49.501Z,38.03
2018-01-11T18:49:15.266Z,35.33
2018-01-11T18:51:40.998Z,41.10
2018-01-11T18:54:13.839Z,41.27
2018-01-11T18:56:39.572Z,45.12
2018-01-11T18:59:05.320Z,49.47
2018-01-11T19:01:31.054Z,47.50
2018-01-11T19:03:56.810Z,44.47
2018-01-11T19:06:22.563Z,53.37
2018-01-11T19:08:48.319Z,54.07
2018-01-11T19:11:14.080Z,49.00
2018-01-11T19:13:39.822Z,52.57
2018-01-11T19:16:05.563Z,59.60
2018-01-11T19:18:31.293Z,57.43
2018-01-11T19:20:57.043Z,65.03
2018-01-11T19:23:22.796Z,73.83
2018-01-11T19:25:48.562Z,71.07
2018-01-11T19:28:14.311Z,62.77
2018-01-11T19:30:40.084Z,69.93
2018-01-11T19:33:05.839Z,93.27
2018-01-11T19:35:31.578Z,77.93
2018-01-11T19:37:57.315Z,83.83
2018-01-11T19:40:23.110Z,104.27
2018-01-11T19:42:48.887Z,106.43
2018-01-11T19:45:15.932Z,83.97
2018-01-11T19:47:41.682Z,101.65
2018-01-11T19:50:07.441Z,89.17
2018-01-11T19:52:33.303Z,92.43
2018-01-11T19:54:59.014Z,95.33
2018-01-11T19:57:24.765Z,92.37
2018-01-11T19:59:50.512Z,91.30
2018-01-11T20:02:16.272Z,79.67
2018-01-11T20:04:42.022Z,92.87
2018-01-11T20:07:07.787Z,88.90
2018-01-11T20:09:33.583Z,101.13
2018-01-11T20:11:59.342Z,95.97
2018-01-11T20:14:25.075Z,97.80
2018-01-11T20:16:50.835Z,95.67
2018-01-11T20:19:16.588Z,82.67
2018-01-11T20:21:42.350Z,90.03
2018-01-11T20:24:08.115Z,86.97
2018-01-11T20:26:33.872Z,93.90
2018-01-11T20:28:59.623Z,104.37
2018-01-11T20:31:25.371Z,99.87
2018-01-11T20:33:51.120Z,88.13
2018-01-11T20:36:16.895Z,91.63
2018-01-11T20:38:42.635Z,95.77
2018-01-11T20:41:08.398Z,103.47
2018-01-11T20:43:34.138Z,96.73
2018-01-11T20:45:59.878Z,88.67
2018-01-11T20:48:25.626Z,85.97
2018-01-11T20:50:51.376Z,79.63
2018-01-11T20:53:17.123Z,86.87
2018-01-11T20:55:42.862Z,78.23
2018-01-11T20:58:08.607Z,79.10
2018-01-11T21:00:34.436Z,85.67
2018-01-11T21:03:00.207Z,91.20
2018-01-11T21:05:25.987Z,92.77
2018-01-11T21:07:51.743Z,109.93
2018-01-11T21:10:17.495Z,99.33
2018-01-11T21:12:43.250Z,106.33
2018-01-11T21:15:09.004Z,76.70
2018-01-11T21:17:34.766Z,80.27
2018-01-11T21:20:00.519Z,86.30
2018-01-11T21:22:26.330Z,85.83
2018-01-11T21:24:52.087Z,86.47
2018-01-11T21:27:17.875Z,77.63
2018-01-11T21:29:44.155Z,77.10
2018-01-11T21:32:09.979Z,82.60
2018-01-11T21:34:35.730Z,81.30
2018-01-11T21:37:01.536Z,80.60
2018-01-11T21:39:27.276Z,71.93
2018-01-11T21:41:53.072Z,75.43
2018-01-11T21:44:18.818Z,61.53
2018-01-11T21:46:44.574Z,69.70
2018-01-11T21:49:10.331Z,65.80
2018-01-11T21:51:36.219Z,64.00
2018-01-11T21:54:01.975Z,63.20
2018-01-11T21:56:27.721Z,70.23
2018-01-11T21:58:54.210Z,74.23
2018-01-11T22:01:19.955Z,72.78
2018-01-11T22:03:45.699Z,70.63
2018-01-11T22:06:11.452Z,80.33
2018-01-11T22:08:37.278Z,64.70
2018-01-11T22:11:03.046Z,59.57
2018-01-11T22:13:28.811Z,55.73
2018-01-11T22:15:54.647Z,52.90
2018-01-11T22:18:20.398Z,57.33
2018-01-11T22:20:46.156Z,53.17
2018-01-11T22:23:11.918Z,52.03
2018-01-11T22:25:37.683Z,55.07
2018-01-11T22:28:03.442Z,55.57
2018-01-11T22:30:29.228Z,51.23
2018-01-11T22:32:54.974Z,53.77
2018-01-11T22:35:21.039Z,57.47
2018-01-11T22:37:46.778Z,53.15
2018-01-11T22:40:12.527Z,66.30
2018-01-11T22:42:38.383Z,73.10
2018-01-11T22:45:04.147Z,61.30
2018-01-11T22:47:29.922Z,66.27
2018-01-11T22:49:56.005Z,62.97
2018-01-11T22:52:21.751Z,63.30
2018-01-11T22:54:47.516Z,66.33
2018-01-11T22:57:13.258Z,71.13
2018-01-11T22:59:38.991Z,70.70
2018-01-11T23:02:05.142Z,73.93
2018-01-11T23:04:31.259Z,69.82
2018-01-11T23:06:57.008Z,70.55
2018-01-11T23:09:23.873Z,66.53
2018-01-11T23:11:49.614Z,77.47
2018-01-11T23:14:15.359Z,70.30
2018-01-11T23:16:41.124Z,57.97
2018-01-11T23:19:06.860Z,59.70
2018-01-11T23:21:32.618Z,62.80
2018-01-11T23:23:58.462Z,60.23
2018-01-11T23:26:24.617Z,66.77
2018-01-11T23:28:50.498Z,61.88
2018-01-11T23:31:16.251Z,59.23
2018-01-11T23:33:41.987Z,60.83
2018-01-11T23:36:07.735Z,66.23
2018-01-11T23:38:33.466Z,55.60
2018-01-11T23:40:59.227Z,57.40
2018-01-11T23:43:25.005Z,55.50
2018-01-11T23:45:50.765Z,57.00
2018-01-11T23:48:16.531Z,56.23
2018-01-11T23:50:42.275Z,55.23
2018-01-11T23:53:08.019Z,57.17
2018-01-11T23:55:33.761Z,53.97
2018-01-11T23:57:59.506Z,58.23
